sensor_id;sensor_type;location;lat;lon;timestamp;temperature;humidity
6293;DHT22;3179;54.350;10.102;2022-08-19T00:00:15;22.00;99.90
6293;DHT22;3179;54.350;10.102;2022-08-19T00:02:42;22.00;99.90
6293;DHT22;3179;54.350;10.102;2022-08-19T00:05:10;22.00;99.90
6293;DHT22;3179;54.350;10.102;2022-08-19T00:07:38;22.00;99.90
6293;DHT22;3179;54.350;10.102;2022-08-19T00:10:07;22.00;99.90
6293;DHT22;3179;54.350;10.102;2022-08-19T00:12:34;22.00;99.90
6293;DHT22;3179;54.350;10.102;2022-08-19T00:15:02;22.00;99.90
6293;DHT22;3179;54.350;10.102;2022-08-19T00:17:29;22.00;99.90
6293;DHT22;3179;54.350;10.102;2022-08-19T00:19:55;22.00;99.90
6293;DHT22;3179;54.350;10.102;2022-08-19T00:22:22;22.00;99.90
6293;DHT22;3179;54.350;10.102;2022-08-19T00:24:50;22.00;99.90
6293;DHT22;3179;54.350;10.102;2022-08-19T00:27:17;22.00;99.90
6293;DHT22;3179;54.350;10.102;2022-08-19T00:29:44;22.00;99.90
6293;DHT22;3179;54.350;10.102;2022-08-19T00:32:11;22.00;99.90
6293;DHT22;3179;54.350;10.102;2022-08-19T00:34:37;21.90;99.90
6293;DHT22;3179;54.350;10.102;2022-08-19T00:37:04;21.90;99.90
6293;DHT22;3179;54.350;10.102;2022-08-19T00:39:31;22.00;99.90
6293;DHT22;3179;54.350;10.102;2022-08-19T00:41:59;22.00;99.90
6293;DHT22;3179;54.350;10.102;2022-08-19T00:44:28;21.90;99.90
6293;DHT22;3179;54.350;10.102;2022-08-19T00:46:57;21.90;99.90
6293;DHT22;3179;54.350;10.102;2022-08-19T00:49:28;21.90;99.90
6293;DHT22;3179;54.350;10.102;2022-08-19T00:51:58;21.90;99.90
6293;DHT22;3179;54.350;10.102;2022-08-19T00:54:26;21.90;99.90
6293;DHT22;3179;54.350;10.102;2022-08-19T00:56:53;21.90;99.90
6293;DHT22;3179;54.350;10.102;2022-08-19T00:59:21;21.90;99.90
6293;DHT22;3179;54.350;10.102;2022-08-19T01:01:48;21.90;99.90
6293;DHT22;3179;54.350;10.102;2022-08-19T01:04:15;21.90;99.90
6293;DHT22;3179;54.350;10.102;2022-08-19T01:06:41;21.90;99.90
6293;DHT22;3179;54.350;10.102;2022-08-19T01:09:09;21.90;99.90
6293;DHT22;3179;54.350;10.102;2022-08-19T01:11:39;21.80;99.90
6293;DHT22;3179;54.350;10.102;2022-08-19T01:14:06;21.80;99.90
6293;DHT22;3179;54.350;10.102;2022-08-19T01:16:35;21.90;99.90
6293;DHT22;3179;54.350;10.102;2022-08-19T01:19:04;21.80;99.90
6293;DHT22;3179;54.350;10.102;2022-08-19T01:21:39;21.80;99.90
6293;DHT22;3179;54.350;10.102;2022-08-19T01:24:08;21.90;99.90
6293;DHT22;3179;54.350;10.102;2022-08-19T01:26:39;21.80;99.90
6293;DHT22;3179;54.350;10.102;2022-08-19T01:29:07;21.80;99.90
6293;DHT22;3179;54.350;10.102;2022-08-19T01:31:34;21.80;99.90
6293;DHT22;3179;54.350;10.102;2022-08-19T01:34:02;21.80;99.90
6293;DHT22;3179;54.350;10.102;2022-08-19T01:36:31;21.80;99.90
6293;DHT22;3179;54.350;10.102;2022-08-19T01:38:59;21.80;99.90
6293;DHT22;3179;54.350;10.102;2022-08-19T01:41:27;21.70;99.90
6293;DHT22;3179;54.350;10.102;2022-08-19T01:43:54;21.70;99.90
6293;DHT22;3179;54.350;10.102;2022-08-19T01:46:21;21.70;99.90
6293;DHT22;3179;54.350;10.102;2022-08-19T01:48:48;21.70;99.90
6293;DHT22;3179;54.350;10.102;2022-08-19T01:51:16;21.70;99.90
6293;DHT22;3179;54.350;10.102;2022-08-19T01:53:47;21.70;99.90
6293;DHT22;3179;54.350;10.102;2022-08-19T01:56:13;21.70;99.90
6293;DHT22;3179;54.350;10.102;2022-08-19T01:58:48;21.70;99.90
6293;DHT22;3179;54.350;10.102;2022-08-19T02:01:17;21.70;99.90
6293;DHT22;3179;54.350;10.102;2022-08-19T02:03:43;21.70;99.90
6293;DHT22;3179;54.350;10.102;2022-08-19T02:06:11;21.70;99.90
6293;DHT22;3179;54.350;10.102;2022-08-19T02:08:39;21.70;99.90
6293;DHT22;3179;54.350;10.102;2022-08-19T02:11:07;21.70;99.90
6293;DHT22;3179;54.350;10.102;2022-08-19T02:13:34;21.60;99.90
6293;DHT22;3179;54.350;10.102;2022-08-19T02:16:02;21.60;99.90
6293;DHT22;3179;54.350;10.102;2022-08-19T02:18:29;21.70;99.90
6293;DHT22;3179;54.350;10.102;2022-08-19T02:20:56;21.70;99.90
6293;DHT22;3179;54.350;10.102;2022-08-19T02:23:22;21.60;99.90
6293;DHT22;3179;54.350;10.102;2022-08-19T02:25:50;21.60;99.90
6293;DHT22;3179;54.350;10.102;2022-08-19T02:28:17;21.70;99.90
6293;DHT22;3179;54.350;10.102;2022-08-19T02:30:45;21.70;99.90
6293;DHT22;3179;54.350;10.102;2022-08-19T02:33:14;21.60;99.90
6293;DHT22;3179;54.350;10.102;2022-08-19T02:35:41;21.60;99.90
6293;DHT22;3179;54.350;10.102;2022-08-19T02:38:09;21.60;99.90
6293;DHT22;3179;54.350;10.102;2022-08-19T02:40:55;21.60;99.90
6293;DHT22;3179;54.350;10.102;2022-08-19T02:43:23;21.60;99.90
6293;DHT22;3179;54.350;10.102;2022-08-19T02:45:51;21.60;99.90
6293;DHT22;3179;54.350;10.102;2022-08-19T02:48:22;21.50;99.90
6293;DHT22;3179;54.350;10.102;2022-08-19T02:50:50;21.60;99.90
6293;DHT22;3179;54.350;10.102;2022-08-19T02:53:20;21.50;99.90
6293;DHT22;3179;54.350;10.102;2022-08-19T02:55:48;21.50;99.90
6293;DHT22;3179;54.350;10.102;2022-08-19T02:58:15;21.60;99.90
6293;DHT22;3179;54.350;10.102;2022-08-19T03:00:46;21.50;99.90
6293;DHT22;3179;54.350;10.102;2022-08-19T03:03:13;21.60;99.90
6293;DHT22;3179;54.350;10.102;2022-08-19T03:05:43;21.60;99.90
6293;DHT22;3179;54.350;10.102;2022-08-19T03:08:12;21.50;99.90
6293;DHT22;3179;54.350;10.102;2022-08-19T03:10:44;21.60;99.90
6293;DHT22;3179;54.350;10.102;2022-08-19T03:13:13;21.50;99.90
6293;DHT22;3179;54.350;10.102;2022-08-19T03:15:41;21.50;99.90
6293;DHT22;3179;54.350;10.102;2022-08-19T03:18:08;21.50;99.90
6293;DHT22;3179;54.350;10.102;2022-08-19T03:20:42;21.50;99.90
6293;DHT22;3179;54.350;10.102;2022-08-19T03:23:09;21.50;99.90
6293;DHT22;3179;54.350;10.102;2022-08-19T03:25:40;21.50;99.90
6293;DHT22;3179;54.350;10.102;2022-08-19T03:28:07;21.50;99.90
6293;DHT22;3179;54.350;10.102;2022-08-19T03:30:34;21.50;99.90
6293;DHT22;3179;54.350;10.102;2022-08-19T03:33:01;21.50;99.90
6293;DHT22;3179;54.350;10.102;2022-08-19T03:35:28;21.50;99.90
6293;DHT22;3179;54.350;10.102;2022-08-19T03:37:57;21.50;99.90
6293;DHT22;3179;54.350;10.102;2022-08-19T03:40:24;21.50;99.90
6293;DHT22;3179;54.350;10.102;2022-08-19T03:42:51;21.50;99.90
6293;DHT22;3179;54.350;10.102;2022-08-19T03:45:18;21.50;99.90
6293;DHT22;3179;54.350;10.102;2022-08-19T03:47:45;21.50;99.90
6293;DHT22;3179;54.350;10.102;2022-08-19T03:50:12;21.50;99.90
6293;DHT22;3179;54.350;10.102;2022-08-19T03:52:38;21.50;99.90
6293;DHT22;3179;54.350;10.102;2022-08-19T03:55:08;21.40;99.90
6293;DHT22;3179;54.350;10.102;2022-08-19T03:57:35;21.40;99.90
6293;DHT22;3179;54.350;10.102;2022-08-19T04:00:04;21.50;99.90
6293;DHT22;3179;54.350;10.102;2022-08-19T04:02:32;21.40;99.90
6293;DHT22;3179;54.350;10.102;2022-08-19T04:04:58;21.50;99.90
6293;DHT22;3179;54.350;10.102;2022-08-19T04:07:25;21.50;99.90
6293;DHT22;3179;54.350;10.102;2022-08-19T04:09:52;21.50;99.90
6293;DHT22;3179;54.350;10.102;2022-08-19T04:12:20;21.50;99.90
6293;DHT22;3179;54.350;10.102;2022-08-19T04:14:47;21.50;99.90
6293;DHT22;3179;54.350;10.102;2022-08-19T04:17:14;21.50;99.90
6293;DHT22;3179;54.350;10.102;2022-08-19T04:19:40;21.50;99.90
6293;DHT22;3179;54.350;10.102;2022-08-19T04:22:09;21.50;99.90
6293;DHT22;3179;54.350;10.102;2022-08-19T04:24:36;21.50;99.90
6293;DHT22;3179;54.350;10.102;2022-08-19T04:27:05;21.50;99.90
6293;DHT22;3179;54.350;10.102;2022-08-19T04:29:33;21.50;99.90
6293;DHT22;3179;54.350;10.102;2022-08-19T04:32:00;21.50;99.90
6293;DHT22;3179;54.350;10.102;2022-08-19T04:34:28;21.50;99.90
6293;DHT22;3179;54.350;10.102;2022-08-19T04:36:56;21.50;99.90
6293;DHT22;3179;54.350;10.102;2022-08-19T04:39:26;21.50;99.90
6293;DHT22;3179;54.350;10.102;2022-08-19T04:42:14;21.50;99.90
6293;DHT22;3179;54.350;10.102;2022-08-19T04:45:00;21.50;99.90
6293;DHT22;3179;54.350;10.102;2022-08-19T04:47:28;21.50;99.90
6293;DHT22;3179;54.350;10.102;2022-08-19T04:49:56;21.40;99.90
6293;DHT22;3179;54.350;10.102;2022-08-19T04:52:23;21.40;99.90
6293;DHT22;3179;54.350;10.102;2022-08-19T04:54:50;21.40;99.90
6293;DHT22;3179;54.350;10.102;2022-08-19T04:57:17;21.40;99.90
6293;DHT22;3179;54.350;10.102;2022-08-19T04:59:44;21.40;99.90
6293;DHT22;3179;54.350;10.102;2022-08-19T05:02:12;21.40;99.90
6293;DHT22;3179;54.350;10.102;2022-08-19T05:04:39;21.40;99.90
6293;DHT22;3179;54.350;10.102;2022-08-19T05:07:06;21.40;99.90
6293;DHT22;3179;54.350;10.102;2022-08-19T05:09:34;21.40;99.90
6293;DHT22;3179;54.350;10.102;2022-08-19T05:12:00;21.40;99.90
6293;DHT22;3179;54.350;10.102;2022-08-19T05:14:27;21.40;99.90
6293;DHT22;3179;54.350;10.102;2022-08-19T05:16:54;21.50;99.90
6293;DHT22;3179;54.350;10.102;2022-08-19T05:19:22;21.50;99.90
6293;DHT22;3179;54.350;10.102;2022-08-19T05:22:07;21.50;99.90
6293;DHT22;3179;54.350;10.102;2022-08-19T05:24:51;21.50;99.90
6293;DHT22;3179;54.350;10.102;2022-08-19T05:27:18;21.50;99.90
6293;DHT22;3179;54.350;10.102;2022-08-19T05:29:44;21.40;99.90
6293;DHT22;3179;54.350;10.102;2022-08-19T05:32:11;21.40;99.90
6293;DHT22;3179;54.350;10.102;2022-08-19T05:34:39;21.40;99.90
6293;DHT22;3179;54.350;10.102;2022-08-19T05:37:06;21.40;99.90
6293;DHT22;3179;54.350;10.102;2022-08-19T05:39:35;21.40;99.90
6293;DHT22;3179;54.350;10.102;2022-08-19T05:42:06;21.40;99.90
6293;DHT22;3179;54.350;10.102;2022-08-19T05:44:35;21.40;99.90
6293;DHT22;3179;54.350;10.102;2022-08-19T05:47:04;21.40;99.90
6293;DHT22;3179;54.350;10.102;2022-08-19T05:49:32;21.40;99.90
6293;DHT22;3179;54.350;10.102;2022-08-19T05:52:03;21.40;99.90
6293;DHT22;3179;54.350;10.102;2022-08-19T05:54:31;21.40;99.90
6293;DHT22;3179;54.350;10.102;2022-08-19T05:56:58;21.40;99.90
6293;DHT22;3179;54.350;10.102;2022-08-19T05:59:26;21.40;99.90
6293;DHT22;3179;54.350;10.102;2022-08-19T06:01:54;21.40;99.90
6293;DHT22;3179;54.350;10.102;2022-08-19T06:04:22;21.40;99.90
6293;DHT22;3179;54.350;10.102;2022-08-19T06:06:50;21.40;99.90
6293;DHT22;3179;54.350;10.102;2022-08-19T06:09:20;21.40;99.90
6293;DHT22;3179;54.350;10.102;2022-08-19T06:11:49;21.40;99.90
6293;DHT22;3179;54.350;10.102;2022-08-19T06:14:20;21.50;99.90
6293;DHT22;3179;54.350;10.102;2022-08-19T06:16:48;21.50;99.90
6293;DHT22;3179;54.350;10.102;2022-08-19T06:19:18;21.50;99.90
6293;DHT22;3179;54.350;10.102;2022-08-19T06:21:47;21.50;99.90
6293;DHT22;3179;54.350;10.102;2022-08-19T06:24:16;21.40;99.90
6293;DHT22;3179;54.350;10.102;2022-08-19T06:26:46;21.40;99.90
6293;DHT22;3179;54.350;10.102;2022-08-19T06:29:15;21.30;99.90
6293;DHT22;3179;54.350;10.102;2022-08-19T06:31:45;21.40;99.90
6293;DHT22;3179;54.350;10.102;2022-08-19T06:34:12;21.40;99.90
6293;DHT22;3179;54.350;10.102;2022-08-19T06:36:43;21.40;99.90
6293;DHT22;3179;54.350;10.102;2022-08-19T06:39:12;21.40;99.90
6293;DHT22;3179;54.350;10.102;2022-08-19T06:41:42;21.40;99.90
6293;DHT22;3179;54.350;10.102;2022-08-19T06:44:10;21.40;99.90
6293;DHT22;3179;54.350;10.102;2022-08-19T06:46:38;21.40;99.90
6293;DHT22;3179;54.350;10.102;2022-08-19T06:49:06;21.40;99.90
6293;DHT22;3179;54.350;10.102;2022-08-19T06:51:37;21.40;99.90
6293;DHT22;3179;54.350;10.102;2022-08-19T06:54:04;21.50;99.90
6293;DHT22;3179;54.350;10.102;2022-08-19T06:56:32;21.50;99.90
6293;DHT22;3179;54.350;10.102;2022-08-19T06:59:00;21.50;99.90
6293;DHT22;3179;54.350;10.102;2022-08-19T07:01:28;21.50;99.90
6293;DHT22;3179;54.350;10.102;2022-08-19T07:03:55;21.50;99.90
6293;DHT22;3179;54.350;10.102;2022-08-19T07:06:22;21.60;99.90
6293;DHT22;3179;54.350;10.102;2022-08-19T07:08:49;21.60;99.90
6293;DHT22;3179;54.350;10.102;2022-08-19T07:11:17;21.60;99.90
6293;DHT22;3179;54.350;10.102;2022-08-19T07:13:46;21.60;99.90
6293;DHT22;3179;54.350;10.102;2022-08-19T07:16:16;21.60;99.90
6293;DHT22;3179;54.350;10.102;2022-08-19T07:18:46;21.60;99.90
6293;DHT22;3179;54.350;10.102;2022-08-19T07:21:18;21.60;99.90
6293;DHT22;3179;54.350;10.102;2022-08-19T07:23:47;21.60;99.90
6293;DHT22;3179;54.350;10.102;2022-08-19T07:26:16;21.60;99.90
6293;DHT22;3179;54.350;10.102;2022-08-19T07:28:45;21.70;99.90
6293;DHT22;3179;54.350;10.102;2022-08-19T07:31:13;21.70;99.90
6293;DHT22;3179;54.350;10.102;2022-08-19T07:33:40;21.70;99.90
6293;DHT22;3179;54.350;10.102;2022-08-19T07:36:13;21.70;99.90
6293;DHT22;3179;54.350;10.102;2022-08-19T07:38:43;21.70;99.90
6293;DHT22;3179;54.350;10.102;2022-08-19T07:41:11;21.70;99.90
6293;DHT22;3179;54.350;10.102;2022-08-19T07:43:38;21.70;99.90
6293;DHT22;3179;54.350;10.102;2022-08-19T07:46:06;21.70;99.90
6293;DHT22;3179;54.350;10.102;2022-08-19T07:48:33;21.70;99.90
6293;DHT22;3179;54.350;10.102;2022-08-19T07:51:01;21.60;99.90
6293;DHT22;3179;54.350;10.102;2022-08-19T07:53:31;21.70;99.90
6293;DHT22;3179;54.350;10.102;2022-08-19T07:55:59;21.60;99.90
6293;DHT22;3179;54.350;10.102;2022-08-19T07:58:29;21.60;99.90
6293;DHT22;3179;54.350;10.102;2022-08-19T08:00:56;21.60;99.90
6293;DHT22;3179;54.350;10.102;2022-08-19T08:03:23;21.60;99.90
6293;DHT22;3179;54.350;10.102;2022-08-19T08:06:10;21.60;99.90
6293;DHT22;3179;54.350;10.102;2022-08-19T08:08:56;21.60;99.90
6293;DHT22;3179;54.350;10.102;2022-08-19T08:11:44;21.60;99.90
6293;DHT22;3179;54.350;10.102;2022-08-19T08:14:15;21.60;99.90
6293;DHT22;3179;54.350;10.102;2022-08-19T08:16:42;21.60;99.90
6293;DHT22;3179;54.350;10.102;2022-08-19T08:19:11;21.60;99.90
6293;DHT22;3179;54.350;10.102;2022-08-19T08:21:41;21.60;99.90
6293;DHT22;3179;54.350;10.102;2022-08-19T08:24:10;21.60;99.90
6293;DHT22;3179;54.350;10.102;2022-08-19T08:26:38;21.60;99.90
6293;DHT22;3179;54.350;10.102;2022-08-19T08:29:04;21.60;99.90
6293;DHT22;3179;54.350;10.102;2022-08-19T08:31:33;21.60;99.90
6293;DHT22;3179;54.350;10.102;2022-08-19T08:34:01;21.60;99.90
6293;DHT22;3179;54.350;10.102;2022-08-19T08:36:28;21.60;99.90
6293;DHT22;3179;54.350;10.102;2022-08-19T08:38:58;21.60;99.90
6293;DHT22;3179;54.350;10.102;2022-08-19T08:41:33;21.60;99.90
6293;DHT22;3179;54.350;10.102;2022-08-19T08:44:03;21.60;99.90
6293;DHT22;3179;54.350;10.102;2022-08-19T08:46:35;21.60;99.90
6293;DHT22;3179;54.350;10.102;2022-08-19T08:49:13;21.60;99.90
6293;DHT22;3179;54.350;10.102;2022-08-19T08:51:44;21.60;99.90
6293;DHT22;3179;54.350;10.102;2022-08-19T08:54:14;21.60;99.90
6293;DHT22;3179;54.350;10.102;2022-08-19T08:56:46;21.70;99.90
6293;DHT22;3179;54.350;10.102;2022-08-19T08:59:20;21.70;99.90
6293;DHT22;3179;54.350;10.102;2022-08-19T09:01:47;21.80;99.90
6293;DHT22;3179;54.350;10.102;2022-08-19T09:04:15;21.80;99.90
6293;DHT22;3179;54.350;10.102;2022-08-19T09:06:50;21.80;99.90
6293;DHT22;3179;54.350;10.102;2022-08-19T09:09:23;21.80;99.90
6293;DHT22;3179;54.350;10.102;2022-08-19T09:12:04;21.80;99.90
6293;DHT22;3179;54.350;10.102;2022-08-19T09:14:39;21.80;99.90
6293;DHT22;3179;54.350;10.102;2022-08-19T09:17:11;21.80;99.90
6293;DHT22;3179;54.350;10.102;2022-08-19T09:19:52;21.80;99.90
6293;DHT22;3179;54.350;10.102;2022-08-19T09:22:19;21.80;99.90
6293;DHT22;3179;54.350;10.102;2022-08-19T09:24:48;21.80;99.90
6293;DHT22;3179;54.350;10.102;2022-08-19T09:27:16;21.80;99.90
6293;DHT22;3179;54.350;10.102;2022-08-19T09:29:43;21.80;99.90
6293;DHT22;3179;54.350;10.102;2022-08-19T09:32:09;21.70;99.90
6293;DHT22;3179;54.350;10.102;2022-08-19T09:34:36;21.70;99.90
6293;DHT22;3179;54.350;10.102;2022-08-19T09:37:03;21.70;99.90
6293;DHT22;3179;54.350;10.102;2022-08-19T09:39:30;21.70;99.90
6293;DHT22;3179;54.350;10.102;2022-08-19T09:41:57;21.70;99.90
6293;DHT22;3179;54.350;10.102;2022-08-19T09:44:25;21.80;99.90
6293;DHT22;3179;54.350;10.102;2022-08-19T09:46:52;21.80;99.90
6293;DHT22;3179;54.350;10.102;2022-08-19T09:49:19;21.80;99.90
6293;DHT22;3179;54.350;10.102;2022-08-19T09:51:50;21.70;99.90
6293;DHT22;3179;54.350;10.102;2022-08-19T09:54:17;21.80;99.90
6293;DHT22;3179;54.350;10.102;2022-08-19T09:56:45;21.80;99.90
6293;DHT22;3179;54.350;10.102;2022-08-19T09:59:12;21.80;99.90
6293;DHT22;3179;54.350;10.102;2022-08-19T10:01:41;21.70;99.90
6293;DHT22;3179;54.350;10.102;2022-08-19T10:04:07;21.80;99.90
6293;DHT22;3179;54.350;10.102;2022-08-19T10:06:36;21.80;99.90
6293;DHT22;3179;54.350;10.102;2022-08-19T10:09:04;21.80;99.90
6293;DHT22;3179;54.350;10.102;2022-08-19T10:11:31;21.80;99.90
6293;DHT22;3179;54.350;10.102;2022-08-19T10:13:58;21.80;99.90
6293;DHT22;3179;54.350;10.102;2022-08-19T10:16:25;21.80;99.90
6293;DHT22;3179;54.350;10.102;2022-08-19T10:18:54;21.80;99.90
6293;DHT22;3179;54.350;10.102;2022-08-19T10:21:23;21.80;99.90
6293;DHT22;3179;54.350;10.102;2022-08-19T10:23:52;21.90;99.90
6293;DHT22;3179;54.350;10.102;2022-08-19T10:26:22;21.90;99.90
6293;DHT22;3179;54.350;10.102;2022-08-19T10:28:49;21.90;99.90
6293;DHT22;3179;54.350;10.102;2022-08-19T10:31:20;21.90;99.90
6293;DHT22;3179;54.350;10.102;2022-08-19T10:33:47;21.90;99.90
6293;DHT22;3179;54.350;10.102;2022-08-19T10:36:18;21.90;99.90
6293;DHT22;3179;54.350;10.102;2022-08-19T10:38:46;21.90;99.90
6293;DHT22;3179;54.350;10.102;2022-08-19T10:41:16;21.90;99.90
6293;DHT22;3179;54.350;10.102;2022-08-19T10:43:43;22.00;99.90
6293;DHT22;3179;54.350;10.102;2022-08-19T10:46:13;22.00;99.90
6293;DHT22;3179;54.350;10.102;2022-08-19T10:48:41;22.00;99.90
6293;DHT22;3179;54.350;10.102;2022-08-19T10:51:09;22.10;99.90
6293;DHT22;3179;54.350;10.102;2022-08-19T10:53:55;22.10;99.90
6293;DHT22;3179;54.350;10.102;2022-08-19T10:56:22;22.20;99.90
6293;DHT22;3179;54.350;10.102;2022-08-19T10:59:06;22.20;99.90
6293;DHT22;3179;54.350;10.102;2022-08-19T11:01:35;22.20;99.90
6293;DHT22;3179;54.350;10.102;2022-08-19T11:04:03;22.20;99.90
6293;DHT22;3179;54.350;10.102;2022-08-19T11:06:33;22.30;99.90
6293;DHT22;3179;54.350;10.102;2022-08-19T11:09:02;22.30;99.90
6293;DHT22;3179;54.350;10.102;2022-08-19T11:11:30;22.30;99.90
6293;DHT22;3179;54.350;10.102;2022-08-19T11:13:58;22.30;99.90
6293;DHT22;3179;54.350;10.102;2022-08-19T11:16:26;22.30;99.90
6293;DHT22;3179;54.350;10.102;2022-08-19T11:18:58;22.30;99.90
6293;DHT22;3179;54.350;10.102;2022-08-19T11:21:26;22.40;99.90
6293;DHT22;3179;54.350;10.102;2022-08-19T11:23:56;22.40;99.90
6293;DHT22;3179;54.350;10.102;2022-08-19T11:26:25;22.40;99.90
6293;DHT22;3179;54.350;10.102;2022-08-19T11:28:52;22.40;99.90
6293;DHT22;3179;54.350;10.102;2022-08-19T11:31:21;22.40;99.90
6293;DHT22;3179;54.350;10.102;2022-08-19T11:33:48;22.40;99.90
6293;DHT22;3179;54.350;10.102;2022-08-19T11:36:17;22.40;99.90
6293;DHT22;3179;54.350;10.102;2022-08-19T11:38:44;22.40;99.90
6293;DHT22;3179;54.350;10.102;2022-08-19T11:41:15;22.40;99.90
6293;DHT22;3179;54.350;10.102;2022-08-19T11:43:43;22.50;99.90
6293;DHT22;3179;54.350;10.102;2022-08-19T11:46:12;22.50;99.90
6293;DHT22;3179;54.350;10.102;2022-08-19T11:48:40;22.50;99.90
6293;DHT22;3179;54.350;10.102;2022-08-19T11:51:09;22.50;99.90
6293;DHT22;3179;54.350;10.102;2022-08-19T11:53:36;22.50;99.90
6293;DHT22;3179;54.350;10.102;2022-08-19T11:56:05;22.50;99.90
6293;DHT22;3179;54.350;10.102;2022-08-19T11:58:33;22.50;99.90
6293;DHT22;3179;54.350;10.102;2022-08-19T12:01:05;22.50;99.90
6293;DHT22;3179;54.350;10.102;2022-08-19T12:03:32;22.50;99.90
6293;DHT22;3179;54.350;10.102;2022-08-19T12:06:03;22.50;99.90
6293;DHT22;3179;54.350;10.102;2022-08-19T12:08:30;22.50;99.90
6293;DHT22;3179;54.350;10.102;2022-08-19T12:10:57;22.50;99.90
6293;DHT22;3179;54.350;10.102;2022-08-19T12:13:26;22.50;99.90
6293;DHT22;3179;54.350;10.102;2022-08-19T12:15:53;22.40;99.90
6293;DHT22;3179;54.350;10.102;2022-08-19T12:18:21;22.40;99.90
6293;DHT22;3179;54.350;10.102;2022-08-19T12:20:51;22.40;99.90
6293;DHT22;3179;54.350;10.102;2022-08-19T12:23:18;22.40;99.90
6293;DHT22;3179;54.350;10.102;2022-08-19T12:25:47;22.40;99.90
6293;DHT22;3179;54.350;10.102;2022-08-19T12:28:17;22.40;99.90
6293;DHT22;3179;54.350;10.102;2022-08-19T12:30:44;22.40;99.90
6293;DHT22;3179;54.350;10.102;2022-08-19T12:33:11;22.40;99.90
6293;DHT22;3179;54.350;10.102;2022-08-19T12:35:43;22.40;99.90
6293;DHT22;3179;54.350;10.102;2022-08-19T12:38:11;22.40;99.90
6293;DHT22;3179;54.350;10.102;2022-08-19T12:40:37;22.40;99.90
6293;DHT22;3179;54.350;10.102;2022-08-19T12:43:05;22.40;99.90
6293;DHT22;3179;54.350;10.102;2022-08-19T12:45:32;22.40;99.90
6293;DHT22;3179;54.350;10.102;2022-08-19T12:47:59;22.50;99.90
6293;DHT22;3179;54.350;10.102;2022-08-19T12:50:29;22.40;99.90
6293;DHT22;3179;54.350;10.102;2022-08-19T12:52:58;22.40;99.90
6293;DHT22;3179;54.350;10.102;2022-08-19T12:55:25;22.40;99.90
6293;DHT22;3179;54.350;10.102;2022-08-19T12:57:53;22.40;99.90
6293;DHT22;3179;54.350;10.102;2022-08-19T13:00:21;22.50;99.90
6293;DHT22;3179;54.350;10.102;2022-08-19T13:02:51;22.50;99.90
6293;DHT22;3179;54.350;10.102;2022-08-19T13:05:21;22.60;99.90
6293;DHT22;3179;54.350;10.102;2022-08-19T13:07:49;22.50;99.90
6293;DHT22;3179;54.350;10.102;2022-08-19T13:10:19;22.60;99.90
6293;DHT22;3179;54.350;10.102;2022-08-19T13:12:49;22.60;99.90
6293;DHT22;3179;54.350;10.102;2022-08-19T13:15:18;22.60;99.90
6293;DHT22;3179;54.350;10.102;2022-08-19T13:17:46;22.60;99.90
6293;DHT22;3179;54.350;10.102;2022-08-19T13:20:14;22.60;99.90
6293;DHT22;3179;54.350;10.102;2022-08-19T13:22:41;22.60;99.90
6293;DHT22;3179;54.350;10.102;2022-08-19T13:25:10;22.70;99.90
6293;DHT22;3179;54.350;10.102;2022-08-19T13:27:38;22.70;99.90
6293;DHT22;3179;54.350;10.102;2022-08-19T13:30:08;22.70;99.90
6293;DHT22;3179;54.350;10.102;2022-08-19T13:32:52;22.70;99.90
6293;DHT22;3179;54.350;10.102;2022-08-19T13:35:38;22.70;99.90
6293;DHT22;3179;54.350;10.102;2022-08-19T13:38:05;22.70;99.90
6293;DHT22;3179;54.350;10.102;2022-08-19T13:40:33;22.70;99.90
6293;DHT22;3179;54.350;10.102;2022-08-19T13:43:01;22.70;99.90
6293;DHT22;3179;54.350;10.102;2022-08-19T13:45:31;22.80;99.90
6293;DHT22;3179;54.350;10.102;2022-08-19T13:48:00;22.80;99.90
6293;DHT22;3179;54.350;10.102;2022-08-19T13:50:32;22.80;99.90
6293;DHT22;3179;54.350;10.102;2022-08-19T13:53:00;22.80;99.90
6293;DHT22;3179;54.350;10.102;2022-08-19T13:55:27;22.80;99.90
6293;DHT22;3179;54.350;10.102;2022-08-19T13:57:56;22.80;99.90
6293;DHT22;3179;54.350;10.102;2022-08-19T14:00:26;22.80;99.90
6293;DHT22;3179;54.350;10.102;2022-08-19T14:02:55;22.80;99.90
6293;DHT22;3179;54.350;10.102;2022-08-19T14:05:24;22.80;99.90
6293;DHT22;3179;54.350;10.102;2022-08-19T14:07:51;22.70;99.90
6293;DHT22;3179;54.350;10.102;2022-08-19T14:10:18;22.70;99.90
6293;DHT22;3179;54.350;10.102;2022-08-19T14:12:46;22.70;99.90
6293;DHT22;3179;54.350;10.102;2022-08-19T14:15:13;22.70;99.90
6293;DHT22;3179;54.350;10.102;2022-08-19T14:17:44;22.70;99.90
6293;DHT22;3179;54.350;10.102;2022-08-19T14:20:13;22.70;99.90
6293;DHT22;3179;54.350;10.102;2022-08-19T14:22:41;22.70;99.90
6293;DHT22;3179;54.350;10.102;2022-08-19T14:25:10;22.70;99.90
6293;DHT22;3179;54.350;10.102;2022-08-19T14:27:39;22.70;99.90
6293;DHT22;3179;54.350;10.102;2022-08-19T14:30:07;22.60;99.90
6293;DHT22;3179;54.350;10.102;2022-08-19T14:32:35;22.60;99.90
6293;DHT22;3179;54.350;10.102;2022-08-19T14:35:04;22.70;99.90
6293;DHT22;3179;54.350;10.102;2022-08-19T14:37:33;22.60;99.90
6293;DHT22;3179;54.350;10.102;2022-08-19T14:40:00;22.70;99.90
6293;DHT22;3179;54.350;10.102;2022-08-19T14:42:28;22.80;99.90
6293;DHT22;3179;54.350;10.102;2022-08-19T14:44:57;22.80;99.90
6293;DHT22;3179;54.350;10.102;2022-08-19T14:47:25;22.90;99.90
6293;DHT22;3179;54.350;10.102;2022-08-19T14:49:52;22.90;99.90
6293;DHT22;3179;54.350;10.102;2022-08-19T14:52:21;22.90;99.90
6293;DHT22;3179;54.350;10.102;2022-08-19T14:54:48;23.00;99.90
6293;DHT22;3179;54.350;10.102;2022-08-19T14:57:15;23.00;99.90
6293;DHT22;3179;54.350;10.102;2022-08-19T14:59:42;23.00;99.90
6293;DHT22;3179;54.350;10.102;2022-08-19T15:02:09;23.00;99.90
6293;DHT22;3179;54.350;10.102;2022-08-19T15:04:36;23.00;99.90
6293;DHT22;3179;54.350;10.102;2022-08-19T15:07:04;23.00;99.90
6293;DHT22;3179;54.350;10.102;2022-08-19T15:09:33;22.90;99.90
6293;DHT22;3179;54.350;10.102;2022-08-19T15:12:00;22.90;99.90
6293;DHT22;3179;54.350;10.102;2022-08-19T15:14:28;22.90;99.90
6293;DHT22;3179;54.350;10.102;2022-08-19T15:17:00;22.90;99.90
6293;DHT22;3179;54.350;10.102;2022-08-19T15:19:27;22.90;99.90
6293;DHT22;3179;54.350;10.102;2022-08-19T15:21:54;22.90;99.90
6293;DHT22;3179;54.350;10.102;2022-08-19T15:24:24;22.80;99.90
6293;DHT22;3179;54.350;10.102;2022-08-19T15:26:53;22.90;99.90
6293;DHT22;3179;54.350;10.102;2022-08-19T15:29:21;22.90;99.90
6293;DHT22;3179;54.350;10.102;2022-08-19T15:31:50;22.90;99.90
6293;DHT22;3179;54.350;10.102;2022-08-19T15:34:16;23.00;99.90
6293;DHT22;3179;54.350;10.102;2022-08-19T15:36:43;23.00;99.90
6293;DHT22;3179;54.350;10.102;2022-08-19T15:39:10;23.00;99.90
6293;DHT22;3179;54.350;10.102;2022-08-19T15:41:37;23.10;99.90
6293;DHT22;3179;54.350;10.102;2022-08-19T15:44:10;23.00;99.90
6293;DHT22;3179;54.350;10.102;2022-08-19T15:46:42;23.00;99.90
6293;DHT22;3179;54.350;10.102;2022-08-19T15:49:10;23.00;99.90
6293;DHT22;3179;54.350;10.102;2022-08-19T15:51:38;23.00;99.90
6293;DHT22;3179;54.350;10.102;2022-08-19T15:54:10;22.90;99.90